createdAt,value
2023-05-09T00:03:17.384Z,52.96
2023-05-09T00:08:38.038Z,53.22
2023-05-09T00:13:58.812Z,53.43
2023-05-09T00:19:19.149Z,53.73
2023-05-09T00:24:39.355Z,53.75
2023-05-09T00:29:59.844Z,53.69
2023-05-09T00:35:20.927Z,53.80
2023-05-09T00:40:41.900Z,53.84
2023-05-09T00:46:02.717Z,53.92
2023-05-09T00:51:24.055Z,53.95
2023-05-09T00:56:45.152Z,54.29
2023-05-09T01:02:05.858Z,54.39
2023-05-09T01:07:43.565Z,54.41
2023-05-09T01:13:15.044Z,54.60
2023-05-09T01:18:56.204Z,54.84
2023-05-09T01:24:39.984Z,54.94
2023-05-09T01:30:03.808Z,54.92
2023-05-09T01:35:26.454Z,54.80
2023-05-09T01:40:51.276Z,55.12
2023-05-09T01:46:14.221Z,55.16
2023-05-09T01:51:36.540Z,55.31
2023-05-09T01:56:58.863Z,55.46
2023-05-09T02:02:19.419Z,55.79
2023-05-09T02:07:41.707Z,55.73
2023-05-09T02:13:02.938Z,55.55
2023-05-09T02:18:23.605Z,55.67
2023-05-09T02:23:43.841Z,55.57
2023-05-09T02:29:07.025Z,55.63
2023-05-09T02:34:27.704Z,55.63
2023-05-09T02:39:50.672Z,55.64
2023-05-09T02:45:11.560Z,55.45
2023-05-09T02:50:32.284Z,55.75
2023-05-09T02:55:53.892Z,55.86
2023-05-09T03:01:14.796Z,55.87
2023-05-09T03:06:35.112Z,55.89
2023-05-09T03:11:56.765Z,55.85
2023-05-09T03:17:21.120Z,56.01
2023-05-09T03:22:41.908Z,55.95
2023-05-09T03:28:05.521Z,55.99
2023-05-09T03:33:26.247Z,55.90
2023-05-09T03:38:48.022Z,55.80
2023-05-09T03:44:09.196Z,56.21
2023-05-09T03:49:29.768Z,56.35
2023-05-09T03:54:50.692Z,56.39
2023-05-09T04:00:12.543Z,56.60
2023-05-09T04:05:42.187Z,56.47
2023-05-09T04:11:08.313Z,56.67
2023-05-09T04:16:31.758Z,56.87
2023-05-09T04:21:53.965Z,56.74
2023-05-09T04:27:14.979Z,57.00
2023-05-09T04:32:36.821Z,57.03
2023-05-09T04:37:57.297Z,57.02
2023-05-09T04:43:20.016Z,57.22
2023-05-09T04:56:13.255Z,56.89
2023-05-09T05:01:33.559Z,56.99
2023-05-09T05:06:54.732Z,56.96
2023-05-09T05:12:16.377Z,56.84
2023-05-09T05:17:38.436Z,56.68
2023-05-09T05:23:01.227Z,56.91
2023-05-09T05:28:21.679Z,56.71
2023-05-09T05:33:42.732Z,56.81
2023-05-09T05:39:04.771Z,56.75
2023-05-09T05:44:25.498Z,56.70
2023-05-09T05:49:46.266Z,56.75
2023-05-09T05:55:07.761Z,56.78
2023-05-09T06:00:29.473Z,56.75
2023-05-09T06:05:56.551Z,56.74
2023-05-09T06:11:17.902Z,56.92
2023-05-09T06:16:38.888Z,56.76
2023-05-09T06:21:59.580Z,56.83
2023-05-09T06:27:20.300Z,56.80
2023-05-09T06:32:40.827Z,56.71
2023-05-09T06:38:01.408Z,56.53
2023-05-09T06:43:22.094Z,56.53
2023-05-09T06:48:44.008Z,56.60
2023-05-09T06:54:04.824Z,56.62
2023-05-09T06:59:25.229Z,56.43
2023-05-09T07:04:45.608Z,56.55
2023-05-09T07:10:11.425Z,56.41
2023-05-09T07:15:41.545Z,56.50
2023-05-09T07:21:03.707Z,56.32
2023-05-09T07:26:24.089Z,56.11
2023-05-09T07:31:44.963Z,56.13
2023-05-09T07:37:05.641Z,56.15
2023-05-09T07:42:26.369Z,55.82
2023-05-09T07:47:47.209Z,55.62
2023-05-09T07:53:07.793Z,55.31
2023-05-09T07:58:28.196Z,55.13
2023-05-09T08:03:48.932Z,54.91
2023-05-09T08:09:10.416Z,55.10
2023-05-09T08:14:31.474Z,54.71
2023-05-09T08:19:52.158Z,54.54
2023-05-09T08:25:15.270Z,54.27
2023-05-09T08:30:36.983Z,54.27
2023-05-09T08:35:57.289Z,53.61
2023-05-09T08:41:20.838Z,53.34
2023-05-09T08:46:44.483Z,52.92
2023-05-09T08:52:05.581Z,52.68
2023-05-09T08:57:27.937Z,52.21
2023-05-09T09:02:49.475Z,52.06
2023-05-09T09:08:11.732Z,52.47
2023-05-09T09:13:36.135Z,52.64
2023-05-09T09:18:58.912Z,52.29
2023-05-09T09:24:22.927Z,52.01
2023-05-09T09:29:43.422Z,51.77
2023-05-09T09:35:09.991Z,51.68
2023-05-09T09:40:30.958Z,51.49
2023-05-09T09:45:54.033Z,51.16
2023-05-09T09:51:14.545Z,50.83
2023-05-09T09:56:43.942Z,50.00
2023-05-09T10:02:08.225Z,49.52
2023-05-09T10:07:34.035Z,49.61
2023-05-09T10:12:58.365Z,49.00
2023-05-09T10:18:21.908Z,48.73
2023-05-09T10:23:48.429Z,48.28
2023-05-09T10:29:12.567Z,48.61
2023-05-09T10:34:34.704Z,48.32
2023-05-09T10:39:57.364Z,48.50
2023-05-09T10:45:19.738Z,48.43
2023-05-09T10:50:42.750Z,48.11
2023-05-09T10:56:03.072Z,47.97
2023-05-09T11:01:35.352Z,47.28
2023-05-09T11:06:57.720Z,47.46
2023-05-09T11:12:21.886Z,47.83
2023-05-09T11:17:42.687Z,47.07
2023-05-09T11:23:04.801Z,46.92
2023-05-09T11:28:36.610Z,46.26
2023-05-09T11:34:04.631Z,46.14
2023-05-09T11:39:25.669Z,45.96
2023-05-09T11:44:48.487Z,45.05
2023-05-09T11:50:10.474Z,44.80
2023-05-09T11:55:32.602Z,44.02
2023-05-09T12:00:53.208Z,43.62
2023-05-09T12:06:16.484Z,43.20
2023-05-09T12:11:37.257Z,43.39
2023-05-09T12:16:58.458Z,43.72
2023-05-09T12:22:20.103Z,44.22
2023-05-09T12:27:41.722Z,43.75
2023-05-09T12:33:02.567Z,43.48
2023-05-09T12:38:23.310Z,42.95
2023-05-09T12:43:48.938Z,42.99
2023-05-09T12:49:20.915Z,43.41
2023-05-09T12:54:46.286Z,42.81
2023-05-09T13:00:09.754Z,42.90
2023-05-09T13:05:31.718Z,42.98
2023-05-09T13:11:00.798Z,43.29
2023-05-09T13:16:28.870Z,43.47
2023-05-09T13:21:49.351Z,43.72
2023-05-09T13:27:10.950Z,43.50
2023-05-09T13:32:31.587Z,43.35
2023-05-09T13:37:52.291Z,43.42
2023-05-09T13:43:12.418Z,43.11
2023-05-09T13:48:33.159Z,43.28
2023-05-09T13:53:53.870Z,42.53
2023-05-09T13:59:15.116Z,41.80
2023-05-09T14:04:35.698Z,41.04
2023-05-09T14:10:08.386Z,40.38
2023-05-09T14:15:36.447Z,40.67
2023-05-09T14:20:56.705Z,40.77
2023-05-09T14:26:17.648Z,40.93
2023-05-09T14:31:38.397Z,41.22
2023-05-09T14:43:58.091Z,41.81
2023-05-09T14:49:18.700Z,42.02
2023-05-09T14:54:39.507Z,42.21
2023-05-09T15:00:12.534Z,42.18
2023-05-09T15:05:37.622Z,42.14
2023-05-09T15:10:58.266Z,42.22
2023-05-09T15:16:19.581Z,42.37
2023-05-09T15:21:40.303Z,42.84
2023-05-09T15:27:00.847Z,42.92
2023-05-09T15:32:21.242Z,42.97
2023-05-09T15:37:41.913Z,43.26
2023-05-09T15:43:08.007Z,43.62
2023-05-09T15:48:31.905Z,43.99
2023-05-09T15:53:52.614Z,44.06
2023-05-09T15:59:12.897Z,44.34
2023-05-09T16:04:33.529Z,45.24
2023-05-09T16:09:53.855Z,46.37
2023-05-09T16:15:14.409Z,47.77
2023-05-09T16:20:34.614Z,48.86
2023-05-09T16:25:55.183Z,49.70
2023-05-09T16:31:15.536Z,50.26
2023-05-09T16:36:37.647Z,51.78
2023-05-09T16:41:58.578Z,52.51
2023-05-09T16:47:18.918Z,52.99
2023-05-09T16:52:39.797Z,53.35
2023-05-09T16:58:00.333Z,54.27
2023-05-09T17:03:20.949Z,54.64
2023-05-09T17:08:41.447Z,54.83
2023-05-09T17:14:03.294Z,55.17
2023-05-09T17:19:23.755Z,55.32
2023-05-09T17:24:44.264Z,55.54
2023-05-09T17:30:05.798Z,55.71
2023-05-09T17:35:26.329Z,56.07
2023-05-09T17:40:47.244Z,56.61
2023-05-09T17:46:08.055Z,56.85
2023-05-09T17:51:29.405Z,57.57
2023-05-09T17:56:55.241Z,58.20
2023-05-09T18:02:16.727Z,58.92
2023-05-09T18:07:39.367Z,59.75
2023-05-09T18:13:00.250Z,60.58
2023-05-09T18:18:20.708Z,61.07
2023-05-09T18:23:41.390Z,60.96
2023-05-09T18:29:01.896Z,60.88
2023-05-09T18:34:22.533Z,61.22
2023-05-09T18:39:43.365Z,61.87
2023-05-09T18:45:05.786Z,61.79
2023-05-09T18:50:27.750Z,61.95
2023-05-09T18:55:48.133Z,62.18
2023-05-09T19:01:11.448Z,62.60
2023-05-09T19:06:32.523Z,62.67
2023-05-09T19:11:56.467Z,62.88
2023-05-09T19:17:17.495Z,63.07
2023-05-09T19:22:41.122Z,63.44
2023-05-09T19:28:01.958Z,63.63
2023-05-09T19:33:22.407Z,63.82
2023-05-09T19:38:42.793Z,64.03
2023-05-09T19:44:03.630Z,64.27
2023-05-09T19:49:26.355Z,64.19
2023-05-09T19:54:47.106Z,64.54
2023-05-09T20:00:08.926Z,64.63
2023-05-09T20:05:29.372Z,64.58
2023-05-09T20:10:49.966Z,64.78
2023-05-09T20:16:11.185Z,65.00
2023-05-09T20:21:32.035Z,65.20
2023-05-09T20:26:55.035Z,65.17
2023-05-09T20:32:16.228Z,65.32
2023-05-09T20:37:37.354Z,65.44
2023-05-09T20:42:58.176Z,65.67
2023-05-09T20:48:19.161Z,65.76
2023-05-09T20:53:39.861Z,66.00
2023-05-09T20:59:01.030Z,66.14
2023-05-09T21:04:22.199Z,65.98
2023-05-09T21:09:42.479Z,66.01
2023-05-09T21:15:03.155Z,66.06
2023-05-09T21:20:23.768Z,66.36
2023-05-09T21:25:44.684Z,66.27
2023-05-09T21:31:05.576Z,66.21
2023-05-09T21:36:25.999Z,65.78
2023-05-09T21:41:47.388Z,65.42
2023-05-09T21:47:08.279Z,65.03
2023-05-09T21:52:28.735Z,64.54
2023-05-09T21:57:49.382Z,64.17
2023-05-09T22:03:09.881Z,63.26
2023-05-09T22:08:30.504Z,62.56
2023-05-09T22:13:50.693Z,61.87
2023-05-09T22:19:11.178Z,60.99
2023-05-09T22:24:31.629Z,60.18
2023-05-09T22:29:52.254Z,59.71
2023-05-09T22:35:13.185Z,59.09
2023-05-09T22:40:34.149Z,58.43
2023-05-09T22:45:54.854Z,57.97
2023-05-09T22:51:15.572Z,58.17
2023-05-09T22:56:36.317Z,58.11
2023-05-09T23:01:57.844Z,58.36
2023-05-09T23:07:18.321Z,58.42
2023-05-09T23:12:38.622Z,58.67
2023-05-09T23:17:59.193Z,58.69
2023-05-09T23:23:19.865Z,58.72
2023-05-09T23:28:40.586Z,58.36
2023-05-09T23:34:01.563Z,57.73
2023-05-09T23:39:22.118Z,57.03
2023-05-09T23:44:42.547Z,56.58
2023-05-09T23:50:03.518Z,56.05
2023-05-09T23:55:23.915Z,56.05
